createdAt,value
2018-06-29T00:01:14.641Z,13.90
2018-06-29T00:03:44.376Z,12.50
2018-06-29T00:06:13.909Z,19.43
2018-06-29T00:08:43.113Z,16.03
2018-06-29T00:11:13.208Z,18.53
2018-06-29T00:13:42.685Z,16.10
2018-06-29T00:16:12.493Z,14.00
2018-06-29T00:18:42.564Z,13.80
2018-06-29T00:21:12.147Z,14.80
2018-06-29T00:23:43.310Z,16.37
2018-06-29T00:26:12.932Z,15.70
2018-06-29T00:28:42.408Z,15.10
2018-06-29T00:31:12.390Z,16.57
2018-06-29T00:33:41.977Z,17.17
2018-06-29T00:36:11.496Z,17.27
2018-06-29T00:38:41.211Z,19.57
2018-06-29T00:41:11.014Z,20.80
2018-06-29T00:43:41.249Z,18.97
2018-06-29T00:46:10.789Z,16.70
2018-06-29T00:48:40.495Z,17.20
2018-06-29T00:51:10.031Z,19.50
2018-06-29T00:53:40.580Z,20.77
2018-06-29T00:56:10.638Z,19.13
2018-06-29T00:58:40.808Z,19.20
2018-06-29T01:01:10.338Z,19.27
2018-06-29T01:03:40.544Z,19.80
2018-06-29T01:06:10.136Z,18.40
2018-06-29T01:08:39.678Z,20.87
2018-06-29T01:11:09.240Z,17.27
2018-06-29T01:13:38.714Z,18.37
2018-06-29T01:16:08.711Z,17.23
2018-06-29T01:18:38.654Z,18.40
2018-06-29T01:21:08.126Z,17.80
2018-06-29T01:23:37.700Z,17.93
2018-06-29T01:26:07.324Z,18.30
2018-06-29T01:28:36.894Z,18.53
2018-06-29T01:31:06.373Z,18.33
2018-06-29T01:33:35.858Z,17.50
2018-06-29T01:36:05.344Z,17.40
2018-06-29T01:38:34.929Z,18.47
2018-06-29T01:41:04.418Z,17.77
2018-06-29T01:43:33.912Z,17.90
2018-06-29T01:46:03.426Z,17.00
2018-06-29T01:48:33.330Z,17.20
2018-06-29T01:51:02.900Z,16.00
2018-06-29T01:53:32.381Z,17.30
2018-06-29T01:56:02.334Z,17.67
2018-06-29T01:58:32.326Z,16.23
2018-06-29T02:01:01.839Z,16.83
2018-06-29T02:03:31.349Z,17.30
2018-06-29T02:06:00.941Z,15.80
2018-06-29T02:08:30.701Z,14.80
2018-06-29T02:11:01.594Z,13.37
2018-06-29T02:13:31.117Z,14.33
2018-06-29T02:16:00.744Z,17.00
2018-06-29T02:18:31.117Z,15.00
2018-06-29T02:21:01.270Z,16.13
2018-06-29T02:23:31.487Z,15.90
2018-06-29T02:26:01.009Z,16.17
2018-06-29T02:28:30.654Z,16.10
2018-06-29T02:31:00.236Z,17.80
2018-06-29T02:33:29.851Z,16.37
2018-06-29T02:36:00.075Z,18.13
2018-06-29T02:38:29.646Z,18.73
2018-06-29T02:40:59.278Z,19.47
2018-06-29T02:43:28.890Z,18.50
2018-06-29T02:45:58.926Z,16.80
2018-06-29T02:48:28.529Z,20.07
2018-06-29T02:50:58.615Z,18.73
2018-06-29T02:53:28.352Z,19.60
2018-06-29T02:55:57.858Z,19.77
2018-06-29T02:58:27.409Z,18.77
2018-06-29T03:00:57.070Z,21.17
2018-06-29T03:03:26.561Z,20.00
2018-06-29T03:05:56.107Z,21.50
2018-06-29T03:08:25.597Z,19.60
2018-06-29T03:10:55.322Z,19.70
2018-06-29T03:13:24.865Z,19.90
2018-06-29T03:15:54.310Z,21.03
2018-06-29T03:18:24.459Z,19.30
2018-06-29T03:20:54.065Z,18.73
2018-06-29T03:23:24.383Z,18.93
2018-06-29T03:25:53.912Z,19.80
2018-06-29T03:28:23.393Z,18.23
2018-06-29T03:30:52.873Z,20.43
2018-06-29T03:33:22.381Z,19.00
2018-06-29T03:35:51.999Z,20.23
2018-06-29T03:38:21.561Z,20.90
2018-06-29T03:40:51.068Z,18.77
2018-06-29T03:43:20.568Z,20.37
2018-06-29T03:45:50.164Z,18.80
2018-06-29T03:48:19.660Z,19.20
2018-06-29T03:50:49.139Z,19.93
2018-06-29T03:53:18.655Z,20.60
2018-06-29T03:55:48.149Z,18.83
2018-06-29T03:58:17.685Z,21.13
2018-06-29T04:00:47.187Z,21.27
2018-06-29T04:03:16.990Z,20.57
2018-06-29T04:05:47.234Z,19.80
2018-06-29T04:08:18.453Z,20.90
2018-06-29T04:10:52.231Z,20.77
2018-06-29T04:13:25.735Z,19.93
2018-06-29T04:15:55.279Z,20.40
2018-06-29T04:18:25.359Z,18.67
2018-06-29T04:20:55.005Z,20.10
2018-06-29T04:23:24.833Z,19.60
2018-06-29T04:25:54.297Z,22.10
2018-06-29T04:28:23.881Z,20.20
2018-06-29T04:30:53.843Z,20.13
2018-06-29T04:33:23.327Z,19.27
2018-06-29T04:35:52.874Z,20.57
2018-06-29T04:38:22.578Z,20.13
2018-06-29T04:40:52.189Z,20.50
2018-06-29T04:43:21.759Z,19.60
2018-06-29T04:45:52.789Z,17.70
2018-06-29T04:48:22.246Z,16.37
2018-06-29T04:50:51.754Z,16.63
2018-06-29T04:53:21.250Z,17.37
2018-06-29T04:55:51.244Z,17.03
2018-06-29T04:58:20.721Z,15.80
2018-06-29T05:00:50.674Z,16.20
2018-06-29T05:03:20.323Z,15.20
2018-06-29T05:05:50.737Z,17.53
2018-06-29T05:08:20.660Z,16.37
2018-06-29T05:10:50.219Z,18.30
2018-06-29T05:13:19.720Z,18.50
2018-06-29T05:15:49.818Z,17.90
2018-06-29T05:18:19.841Z,18.60
2018-06-29T05:20:50.410Z,18.93
2018-06-29T05:23:20.057Z,18.77
2018-06-29T05:25:49.556Z,18.80
2018-06-29T05:28:19.159Z,18.90
2018-06-29T05:30:48.657Z,17.63
2018-06-29T05:33:18.915Z,18.33
2018-06-29T05:35:49.404Z,17.80
2018-06-29T05:38:19.441Z,17.40
2018-06-29T05:40:49.616Z,17.27
2018-06-29T05:43:19.139Z,16.63
2018-06-29T05:45:49.137Z,16.90
2018-06-29T05:48:18.769Z,15.60
2018-06-29T05:50:49.009Z,16.67
2018-06-29T05:53:19.209Z,17.33
2018-06-29T05:55:49.496Z,15.83
2018-06-29T05:58:19.009Z,15.90
2018-06-29T06:00:49.380Z,15.83
2018-06-29T06:03:19.048Z,14.50
2018-06-29T06:05:48.876Z,16.27
2018-06-29T06:08:19.210Z,16.70
2018-06-29T06:10:48.697Z,15.20
2018-06-29T06:13:18.232Z,14.03
2018-06-29T06:15:47.718Z,13.27
2018-06-29T06:18:17.781Z,12.37
2018-06-29T06:20:47.430Z,13.37
2018-06-29T06:23:19.681Z,10.70
2018-06-29T06:25:49.490Z,9.50
2018-06-29T06:28:19.437Z,10.47
2018-06-29T06:30:48.940Z,9.70
2018-06-29T06:33:18.455Z,8.90
2018-06-29T06:35:47.984Z,8.53
2018-06-29T06:38:17.474Z,8.80
2018-06-29T06:40:47.020Z,8.20
2018-06-29T06:43:16.545Z,8.53
2018-06-29T06:45:46.068Z,8.20
2018-06-29T06:48:15.644Z,8.70
2018-06-29T06:50:45.231Z,9.47
2018-06-29T06:53:14.724Z,8.80
2018-06-29T06:55:45.656Z,7.87
2018-06-29T06:58:15.249Z,8.20
2018-06-29T07:00:46.339Z,7.80
2018-06-29T07:03:15.854Z,9.27
2018-06-29T07:05:45.385Z,8.77
2018-06-29T07:08:14.968Z,9.33
2018-06-29T07:10:44.524Z,8.50
2018-06-29T07:13:14.066Z,9.10
2018-06-29T07:15:43.606Z,9.10
2018-06-29T07:18:13.298Z,9.97
2018-06-29T07:20:43.627Z,9.07
2018-06-29T07:23:16.704Z,10.27
2018-06-29T07:25:46.143Z,9.30
2018-06-29T07:28:15.603Z,9.67
2018-06-29T07:30:45.674Z,9.30
2018-06-29T07:33:15.271Z,8.10
2018-06-29T07:35:46.576Z,9.47
2018-06-29T07:38:15.807Z,9.27
2018-06-29T07:40:45.552Z,9.70
2018-06-29T07:43:16.701Z,8.90
2018-06-29T07:45:46.430Z,9.43
2018-06-29T07:48:17.101Z,8.30
2018-06-29T07:50:46.652Z,8.50
2018-06-29T07:53:16.308Z,8.00
2018-06-29T07:55:46.397Z,8.63
2018-06-29T07:58:16.552Z,8.30
2018-06-29T08:00:46.009Z,7.50
2018-06-29T08:03:15.768Z,7.43
2018-06-29T08:05:45.576Z,6.53
2018-06-29T08:08:15.344Z,6.90
2018-06-29T08:10:45.632Z,6.47
2018-06-29T08:13:15.609Z,5.90
2018-06-29T08:15:45.063Z,6.13
2018-06-29T08:18:14.612Z,5.63
2018-06-29T08:20:44.275Z,5.30
2018-06-29T08:23:13.847Z,5.43
2018-06-29T08:25:43.354Z,5.30
2018-06-29T08:28:13.432Z,4.83
2018-06-29T08:30:42.970Z,5.50
2018-06-29T08:33:12.430Z,5.03
2018-06-29T08:35:41.910Z,5.20
2018-06-29T08:38:11.647Z,5.40
2018-06-29T08:40:41.206Z,4.40
2018-06-29T08:43:10.686Z,5.03
2018-06-29T08:45:40.377Z,4.77
2018-06-29T08:48:09.945Z,5.33
2018-06-29T08:50:40.612Z,5.20
2018-06-29T08:53:10.729Z,4.57
2018-06-29T08:55:40.176Z,4.67
2018-06-29T08:58:10.349Z,5.40
2018-06-29T09:00:39.929Z,4.60
2018-06-29T09:03:09.414Z,4.17
2018-06-29T09:05:38.884Z,4.00
2018-06-29T09:08:09.239Z,3.60
2018-06-29T09:10:39.769Z,3.57
2018-06-29T09:13:09.770Z,3.30
2018-06-29T09:15:39.253Z,3.00
2018-06-29T09:18:08.729Z,2.67
2018-06-29T09:20:39.423Z,3.20
2018-06-29T09:23:09.195Z,3.30
2018-06-29T09:25:38.710Z,3.77
2018-06-29T09:28:08.733Z,4.60
2018-06-29T09:30:38.249Z,3.00
2018-06-29T09:33:07.867Z,3.90
2018-06-29T09:35:38.310Z,4.00
2018-06-29T09:38:08.493Z,3.27
2018-06-29T09:40:38.022Z,2.90
2018-06-29T09:43:08.215Z,3.17
2018-06-29T09:45:38.159Z,4.37
2018-06-29T09:48:07.845Z,3.83
2018-06-29T09:50:37.174Z,3.50
2018-06-29T09:53:07.222Z,3.20
2018-06-29T09:55:37.007Z,3.40
2018-06-29T09:58:07.139Z,3.07
2018-06-29T10:00:36.681Z,3.20
2018-06-29T10:03:07.125Z,3.03
2018-06-29T10:05:36.661Z,2.90
2018-06-29T10:08:06.174Z,3.00
2018-06-29T10:10:35.656Z,3.40
2018-06-29T10:13:05.642Z,2.87
2018-06-29T10:15:35.785Z,3.10
2018-06-29T10:18:05.289Z,2.40
2018-06-29T10:20:34.813Z,2.37
2018-06-29T10:23:04.409Z,3.00
2018-06-29T10:25:34.135Z,3.07
2018-06-29T10:28:07.641Z,3.93
2018-06-29T10:30:37.043Z,3.27
2018-06-29T10:33:07.244Z,3.70
2018-06-29T10:35:37.048Z,3.77
2018-06-29T10:38:06.836Z,4.10
2018-06-29T10:40:36.474Z,2.93
2018-06-29T10:43:05.990Z,4.20
2018-06-29T10:45:35.521Z,3.33
2018-06-29T10:48:05.190Z,3.50
2018-06-29T10:50:34.840Z,3.50
2018-06-29T10:53:04.347Z,3.90
2018-06-29T10:55:33.832Z,4.07
2018-06-29T10:58:03.347Z,2.70
2018-06-29T11:00:33.405Z,2.80
2018-06-29T11:03:02.962Z,2.40
2018-06-29T11:05:32.491Z,3.40
2018-06-29T11:08:01.999Z,2.77
2018-06-29T11:10:34.026Z,3.47
2018-06-29T11:13:04.743Z,3.43
2018-06-29T11:15:34.622Z,3.60
2018-06-29T11:18:04.703Z,2.70
2018-06-29T11:20:34.839Z,2.60
2018-06-29T11:23:04.313Z,3.13
2018-06-29T11:25:33.875Z,2.37
2018-06-29T11:28:03.419Z,3.40
2018-06-29T11:30:32.971Z,2.80
2018-06-29T11:33:02.639Z,2.63
2018-06-29T11:35:32.321Z,1.70
2018-06-29T11:38:02.471Z,1.77
2018-06-29T11:40:32.263Z,2.40
2018-06-29T11:43:01.960Z,2.60
2018-06-29T11:45:31.512Z,2.90
2018-06-29T11:48:01.652Z,2.67
2018-06-29T11:50:32.459Z,2.37
2018-06-29T11:53:01.981Z,2.93
2018-06-29T11:55:31.830Z,2.93
2018-06-29T11:58:01.324Z,2.27
2018-06-29T12:00:30.774Z,2.50
2018-06-29T12:03:00.541Z,2.60
2018-06-29T12:05:30.185Z,3.07
2018-06-29T12:07:59.723Z,3.53
2018-06-29T12:10:33.981Z,4.23
2018-06-29T12:13:03.742Z,3.50
2018-06-29T12:15:34.204Z,3.87
2018-06-29T12:18:03.781Z,3.13
2018-06-29T12:20:36.597Z,4.83
2018-06-29T12:23:06.950Z,4.17
2018-06-29T12:25:36.525Z,4.10
2018-06-29T12:28:06.604Z,4.00
2018-06-29T12:30:36.261Z,4.27
2018-06-29T12:33:12.206Z,4.50
2018-06-29T12:35:42.849Z,4.13
2018-06-29T12:38:12.981Z,3.93
2018-06-29T12:40:42.921Z,4.60
2018-06-29T12:43:13.575Z,5.13
2018-06-29T12:45:43.699Z,4.63
2018-06-29T12:48:13.670Z,5.10
2018-06-29T12:50:44.047Z,4.63
2018-06-29T12:53:13.712Z,5.37
2018-06-29T12:55:43.316Z,5.80
2018-06-29T12:58:12.659Z,5.70
2018-06-29T13:00:43.052Z,4.80
2018-06-29T13:03:13.568Z,5.50
2018-06-29T13:05:43.790Z,5.70
2018-06-29T13:08:13.201Z,4.95
2018-06-29T13:10:42.677Z,4.65
2018-06-29T13:13:12.372Z,5.67
2018-06-29T13:15:41.651Z,5.80
2018-06-29T13:18:12.251Z,5.75
2018-06-29T13:20:41.843Z,5.50
2018-06-29T13:23:11.306Z,5.30
2018-06-29T13:25:41.039Z,5.93
2018-06-29T13:28:10.545Z,5.30
2018-06-29T13:30:41.071Z,5.05
2018-06-29T13:33:10.573Z,7.28
2018-06-29T13:35:40.112Z,6.67
2018-06-29T13:38:09.920Z,7.55
2018-06-29T13:40:39.539Z,9.60
2018-06-29T13:43:10.309Z,8.57
2018-06-29T13:45:40.217Z,9.47
2018-06-29T13:48:10.699Z,11.10
2018-06-29T13:50:40.182Z,10.00
2018-06-29T13:53:11.813Z,9.73
2018-06-29T13:55:41.539Z,9.63
2018-06-29T13:58:11.053Z,9.83
2018-06-29T14:00:41.211Z,9.33
2018-06-29T14:03:10.894Z,9.20
2018-06-29T14:05:41.058Z,8.60
2018-06-29T14:08:10.546Z,7.87
2018-06-29T14:10:40.063Z,8.93
2018-06-29T14:13:10.115Z,8.93
2018-06-29T14:15:39.974Z,8.27
2018-06-29T14:18:09.507Z,8.33
2018-06-29T14:20:39.356Z,8.93
2018-06-29T14:23:08.893Z,9.53
2018-06-29T14:25:39.020Z,10.33
2018-06-29T14:28:09.557Z,9.50
2018-06-29T14:30:39.279Z,8.70
2018-06-29T14:33:08.887Z,9.70
2018-06-29T14:35:38.941Z,10.40
2018-06-29T14:38:08.436Z,10.40
2018-06-29T14:40:37.953Z,9.87
2018-06-29T14:43:08.009Z,9.80
2018-06-29T14:45:37.822Z,9.70
2018-06-29T14:48:08.198Z,11.00
2018-06-29T14:50:38.406Z,10.30
2018-06-29T14:53:08.114Z,9.60
2018-06-29T14:55:43.799Z,9.30
2018-06-29T14:58:24.234Z,10.17
2018-06-29T15:00:54.545Z,9.83
2018-06-29T15:03:24.028Z,8.80
2018-06-29T15:05:53.544Z,9.63
2018-06-29T15:08:23.128Z,8.87
2018-06-29T15:10:52.987Z,9.70
2018-06-29T15:13:23.249Z,9.40
2018-06-29T15:15:54.217Z,9.10
2018-06-29T15:18:23.724Z,7.97
2018-06-29T15:20:53.291Z,7.60
2018-06-29T15:23:22.781Z,7.67
2018-06-29T15:25:53.353Z,9.27
2018-06-29T15:28:22.921Z,7.60
2018-06-29T15:30:52.462Z,7.50
2018-06-29T15:33:22.695Z,6.60
2018-06-29T15:35:52.483Z,6.67
2018-06-29T15:38:22.024Z,7.63
2018-06-29T15:40:52.090Z,8.70
2018-06-29T15:43:21.598Z,7.93
2018-06-29T15:45:51.127Z,9.47
2018-06-29T15:48:20.691Z,8.53
2018-06-29T15:50:50.181Z,7.57
2018-06-29T15:53:19.644Z,6.63
2018-06-29T15:55:49.824Z,7.30
2018-06-29T15:58:19.338Z,6.83
2018-06-29T16:00:48.835Z,6.70
2018-06-29T16:03:18.385Z,6.73
2018-06-29T16:05:47.843Z,6.50
2018-06-29T16:08:17.328Z,6.90
2018-06-29T16:10:47.281Z,7.73
2018-06-29T16:13:17.039Z,7.23
2018-06-29T16:15:47.240Z,7.50
2018-06-29T16:18:16.694Z,6.27
2018-06-29T16:20:46.247Z,7.03
2018-06-29T16:23:15.721Z,6.30
2018-06-29T16:25:45.226Z,6.70
2018-06-29T16:28:15.111Z,7.10
2018-06-29T16:30:44.612Z,6.60
2018-06-29T16:33:14.130Z,7.13
2018-06-29T16:35:43.607Z,6.70
2018-06-29T16:38:13.100Z,6.57
2018-06-29T16:40:42.581Z,6.70
2018-06-29T16:43:12.138Z,6.50
2018-06-29T16:45:41.699Z,6.30
2018-06-29T16:48:12.886Z,6.10
2018-06-29T16:50:43.528Z,6.07
2018-06-29T16:53:13.224Z,7.13
2018-06-29T16:55:42.642Z,6.63
2018-06-29T16:58:12.143Z,6.50
2018-06-29T17:00:41.632Z,6.20
2018-06-29T17:03:12.170Z,6.07
2018-06-29T17:05:41.992Z,6.03
2018-06-29T17:08:10.922Z,5.90
2018-06-29T17:10:40.415Z,6.87
2018-06-29T17:13:09.894Z,5.50
2018-06-29T17:15:40.516Z,5.70
2018-06-29T17:18:10.092Z,6.00
2018-06-29T17:20:39.909Z,5.60
2018-06-29T17:23:09.132Z,5.93
2018-06-29T17:25:39.472Z,5.27
2018-06-29T17:28:09.037Z,5.30
2018-06-29T17:30:39.260Z,6.17
2018-06-29T17:33:09.121Z,7.00
2018-06-29T17:35:38.802Z,6.67
2018-06-29T17:38:08.191Z,6.90
2018-06-29T17:40:37.802Z,6.10
2018-06-29T17:43:07.470Z,5.90
2018-06-29T17:45:36.992Z,5.90
2018-06-29T17:48:06.498Z,6.43
2018-06-29T17:50:36.026Z,5.87
2018-06-29T17:53:05.833Z,5.77
2018-06-29T17:55:35.347Z,5.37
2018-06-29T17:58:05.330Z,5.33
2018-06-29T18:00:35.313Z,4.20
2018-06-29T18:03:05.407Z,5.10
2018-06-29T18:05:35.900Z,5.80
2018-06-29T18:08:05.380Z,5.63
2018-06-29T18:10:34.859Z,6.00
2018-06-29T18:13:04.497Z,7.10
2018-06-29T18:15:34.659Z,6.30
2018-06-29T18:18:04.323Z,6.50
2018-06-29T18:20:34.311Z,6.50
2018-06-29T18:23:04.110Z,6.73
2018-06-29T18:25:33.651Z,6.20
2018-06-29T18:28:03.739Z,7.43
2018-06-29T18:30:33.753Z,6.40
2018-06-29T18:33:04.595Z,6.97
2018-06-29T18:35:34.707Z,6.60
2018-06-29T18:38:04.789Z,6.33
2018-06-29T18:40:34.404Z,6.27
2018-06-29T18:43:08.310Z,6.13
2018-06-29T18:45:38.173Z,5.80
2018-06-29T18:48:09.013Z,6.53
2018-06-29T18:50:38.858Z,6.90
2018-06-29T18:53:08.507Z,7.23
2018-06-29T18:55:37.970Z,6.20
2018-06-29T18:58:07.854Z,6.23
2018-06-29T19:00:37.325Z,5.97
2018-06-29T19:03:06.750Z,6.80
2018-06-29T19:05:36.288Z,6.20
2018-06-29T19:08:05.843Z,6.63
2018-06-29T19:10:35.386Z,7.00
2018-06-29T19:13:04.910Z,6.90
2018-06-29T19:15:41.071Z,6.40
2018-06-29T19:18:10.542Z,7.00
2018-06-29T19:20:40.084Z,7.20
2018-06-29T19:23:09.607Z,8.20
2018-06-29T19:25:39.114Z,7.23
2018-06-29T19:28:08.698Z,7.70
2018-06-29T19:30:38.276Z,8.17
2018-06-29T19:33:08.130Z,8.40
2018-06-29T19:35:37.742Z,8.20
2018-06-29T19:38:07.526Z,9.53
2018-06-29T19:40:37.300Z,9.33
2018-06-29T19:43:07.005Z,8.90
2018-06-29T19:45:36.716Z,9.90
2018-06-29T19:48:07.847Z,9.37
2018-06-29T19:50:37.434Z,11.10
2018-06-29T19:53:07.966Z,9.57
2018-06-29T19:55:37.739Z,10.00
2018-06-29T19:58:07.420Z,11.03
2018-06-29T20:00:38.392Z,10.53
2018-06-29T20:03:08.093Z,10.43
2018-06-29T20:05:37.694Z,10.63
2018-06-29T20:08:07.257Z,11.30
2018-06-29T20:10:37.031Z,11.13
2018-06-29T20:13:06.865Z,11.17
2018-06-29T20:15:37.926Z,11.70
2018-06-29T20:18:08.080Z,10.50
2018-06-29T20:20:39.542Z,11.70
2018-06-29T20:23:09.072Z,11.37
2018-06-29T20:25:40.284Z,11.97
2018-06-29T20:28:10.375Z,11.50
2018-06-29T20:30:39.995Z,11.37
2018-06-29T20:33:09.697Z,10.90
2018-06-29T20:35:39.135Z,12.70
2018-06-29T20:38:09.605Z,12.50
2018-06-29T20:40:39.676Z,11.50
2018-06-29T20:43:10.554Z,12.40
2018-06-29T20:45:40.585Z,13.63
2018-06-29T20:48:10.815Z,12.93
2018-06-29T20:50:40.367Z,12.63
2018-06-29T20:53:10.132Z,12.50
2018-06-29T20:55:40.337Z,11.70
2018-06-29T20:58:09.896Z,12.30
2018-06-29T21:00:39.414Z,13.23
2018-06-29T21:03:08.910Z,12.67
2018-06-29T21:05:38.396Z,13.13
2018-06-29T21:08:08.258Z,13.83
2018-06-29T21:10:37.807Z,14.90
2018-06-29T21:13:07.454Z,12.57
2018-06-29T21:15:37.096Z,14.37
2018-06-29T21:18:06.654Z,14.30
2018-06-29T21:20:36.163Z,13.90
2018-06-29T21:23:05.700Z,13.17
2018-06-29T21:25:35.196Z,13.17
2018-06-29T21:28:04.664Z,12.30
2018-06-29T21:30:34.229Z,13.17
2018-06-29T21:33:03.756Z,14.00
2018-06-29T21:35:33.208Z,13.80
2018-06-29T21:38:02.680Z,13.60
2018-06-29T21:40:32.515Z,13.03
2018-06-29T21:43:02.021Z,13.93
2018-06-29T21:45:31.492Z,13.27
2018-06-29T21:48:01.084Z,13.70
2018-06-29T21:50:30.597Z,13.07
2018-06-29T21:53:00.304Z,13.47
2018-06-29T21:55:30.512Z,14.80
2018-06-29T21:58:00.080Z,14.47
2018-06-29T22:00:34.997Z,14.50
2018-06-29T22:03:10.022Z,12.43
2018-06-29T22:05:40.798Z,13.97
2018-06-29T22:08:10.828Z,14.37
2018-06-29T22:10:41.156Z,15.00
2018-06-29T22:13:10.671Z,15.70
2018-06-29T22:15:40.211Z,14.10
2018-06-29T22:18:09.849Z,15.07
2018-06-29T22:20:39.448Z,16.10
2018-06-29T22:23:08.971Z,17.43
2018-06-29T22:25:38.573Z,17.07
2018-06-29T22:28:08.186Z,15.37
2018-06-29T22:30:38.157Z,16.80
2018-06-29T22:33:07.722Z,17.17
2018-06-29T22:35:37.245Z,18.30
2018-06-29T22:38:06.821Z,16.90
2018-06-29T22:40:36.345Z,18.00
2018-06-29T22:43:05.822Z,16.47
2018-06-29T22:45:35.310Z,17.63
2018-06-29T22:48:04.926Z,18.83
2018-06-29T22:50:34.367Z,18.90
2018-06-29T22:53:03.937Z,17.77
2018-06-29T22:55:33.438Z,19.60
2018-06-29T22:58:02.862Z,18.80
2018-06-29T23:00:32.396Z,19.90
2018-06-29T23:03:09.828Z,18.47
2018-06-29T23:05:39.285Z,19.47
2018-06-29T23:08:10.288Z,19.33
2018-06-29T23:10:40.220Z,17.70
2018-06-29T23:13:10.220Z,19.43
2018-06-29T23:15:39.404Z,20.10
2018-06-29T23:18:08.924Z,19.87
2018-06-29T23:20:38.390Z,20.53
2018-06-29T23:23:08.021Z,20.63
2018-06-29T23:25:37.503Z,20.27
2018-06-29T23:28:07.034Z,22.20
2018-06-29T23:30:36.509Z,21.50
2018-06-29T23:33:06.331Z,22.30
2018-06-29T23:35:35.822Z,23.50
2018-06-29T23:38:05.424Z,23.80
2018-06-29T23:40:35.029Z,23.80
2018-06-29T23:43:04.668Z,24.40
2018-06-29T23:45:34.878Z,23.33
2018-06-29T23:48:04.478Z,23.00
2018-06-29T23:50:34.038Z,24.53
2018-06-29T23:53:03.982Z,24.00
2018-06-29T23:55:33.828Z,24.60
2018-06-29T23:58:03.327Z,24.60
